createdAt,value
2023-01-13T00:03:25.551Z,100872.22
2023-01-13T00:08:51.858Z,100902.63
2023-01-13T00:14:13.780Z,100889.66
2023-01-13T00:19:36.330Z,100875.22
2023-01-13T00:25:02.004Z,100865.53
2023-01-13T00:30:26.156Z,100862.41
2023-01-13T00:35:59.134Z,100887.03
2023-01-13T00:41:23.664Z,100891.31
2023-01-13T00:46:45.679Z,100884.56
2023-01-13T00:52:09.998Z,100861.59
2023-01-13T00:57:32.510Z,100866.69
2023-01-13T01:02:54.251Z,100869.34
2023-01-13T01:08:16.411Z,100853.28
2023-01-13T01:13:39.562Z,100837.69
2023-01-13T01:19:02.566Z,100860.19
2023-01-13T01:24:24.782Z,100856.06
2023-01-13T01:29:46.983Z,100865.13
2023-01-13T01:35:09.337Z,100849.69
2023-01-13T01:40:30.858Z,100850.00
2023-01-13T01:45:53.161Z,100826.53
2023-01-13T01:51:15.078Z,100821.13
2023-01-13T01:56:42.502Z,100810.63
2023-01-13T02:02:07.326Z,100807.06
2023-01-13T02:07:34.010Z,100814.75
2023-01-13T02:13:00.280Z,100805.72
2023-01-13T02:18:31.600Z,100827.91
2023-01-13T02:24:27.391Z,100822.66
2023-01-13T02:30:27.702Z,100815.75
2023-01-13T02:35:58.325Z,100796.88
2023-01-13T02:41:51.193Z,100798.50
2023-01-13T02:47:22.738Z,100798.50
2023-01-13T02:52:51.041Z,100798.53
2023-01-13T02:58:17.583Z,100801.47
2023-01-13T03:03:39.923Z,100778.84
2023-01-13T03:09:24.474Z,100779.16
2023-01-13T03:15:04.956Z,100778.50
2023-01-13T03:20:36.038Z,100769.63
2023-01-13T03:26:13.304Z,100757.81
2023-01-13T03:31:41.562Z,100757.78
2023-01-13T03:37:09.009Z,100757.16
2023-01-13T03:42:35.145Z,100770.94
2023-01-13T03:48:00.015Z,100758.75
2023-01-13T03:53:28.652Z,100753.84
2023-01-13T03:58:53.212Z,100724.50
2023-01-13T04:04:25.075Z,100745.63
2023-01-13T04:10:01.985Z,100742.84
2023-01-13T04:15:30.151Z,100741.38
2023-01-13T04:20:54.568Z,100740.88
2023-01-13T04:26:16.621Z,100733.50
2023-01-13T04:31:38.785Z,100738.91
2023-01-13T04:37:00.937Z,100746.59
2023-01-13T04:42:25.932Z,100737.91
2023-01-13T04:47:49.104Z,100735.94
2023-01-13T04:53:11.437Z,100737.44
2023-01-13T04:58:33.531Z,100732.19
2023-01-13T05:03:55.523Z,100731.84
2023-01-13T05:09:17.740Z,100723.97
2023-01-13T05:15:02.625Z,100715.28
2023-01-13T05:20:26.170Z,100726.91
2023-01-13T05:25:57.093Z,100718.06
2023-01-13T05:31:21.818Z,100724.13
2023-01-13T05:36:59.202Z,100746.91
2023-01-13T05:42:39.626Z,100746.28
2023-01-13T05:48:04.662Z,100749.03
2023-01-13T05:53:30.604Z,100738.25
2023-01-13T05:58:53.143Z,100754.44
2023-01-13T06:04:18.195Z,100738.25
2023-01-13T06:09:41.324Z,100730.16
2023-01-13T06:15:03.229Z,100710.31
2023-01-13T06:20:26.022Z,100729.84
2023-01-13T06:26:16.024Z,100740.66
2023-01-13T06:31:39.773Z,100760.66
2023-01-13T06:37:04.697Z,100755.09
2023-01-13T06:42:48.835Z,100731.66
2023-01-13T06:48:10.823Z,100756.06
2023-01-13T06:53:33.475Z,100749.47
2023-01-13T06:58:55.632Z,100740.78
2023-01-13T07:04:17.551Z,100752.59
2023-01-13T07:09:40.717Z,100751.44
2023-01-13T07:15:21.984Z,100750.44
2023-01-13T07:20:46.043Z,100748.16
2023-01-13T07:26:11.841Z,100727.47
2023-01-13T07:31:37.099Z,100730.06
2023-01-13T07:36:59.641Z,100726.44
2023-01-13T07:42:40.677Z,100730.19
2023-01-13T07:48:06.399Z,100712.63
2023-01-13T07:53:28.575Z,100707.91
2023-01-13T07:58:53.597Z,100714.59
2023-01-13T08:04:20.950Z,100727.53
2023-01-13T08:09:46.317Z,100693.41
2023-01-13T08:15:10.751Z,100719.63
2023-01-13T08:20:34.671Z,100714.91
2023-01-13T08:26:02.769Z,100706.00
2023-01-13T08:31:33.351Z,100714.84
2023-01-13T08:36:55.778Z,100731.88
2023-01-13T08:42:18.122Z,100722.72
2023-01-13T08:47:45.762Z,100739.44
2023-01-13T08:53:13.333Z,100735.78
2023-01-13T08:58:39.833Z,100715.63
2023-01-13T09:04:02.989Z,100701.66
2023-01-13T09:09:27.576Z,100700.84
2023-01-13T09:14:49.696Z,100725.06
2023-01-13T09:20:13.184Z,100711.75
2023-01-13T09:25:37.181Z,100706.84
2023-01-13T09:31:02.073Z,100717.63
2023-01-13T09:36:24.212Z,100722.75
2023-01-13T09:42:10.084Z,100711.03
2023-01-13T09:47:47.297Z,100692.47
2023-01-13T09:53:15.582Z,100700.50
2023-01-13T09:58:37.843Z,100696.22
2023-01-13T10:04:05.840Z,100696.03
2023-01-13T10:09:34.889Z,100673.16
2023-01-13T10:14:57.334Z,100665.47
2023-01-13T10:20:42.954Z,100663.78
2023-01-13T10:26:26.163Z,100668.47
2023-01-13T10:31:51.653Z,100645.56
2023-01-13T10:37:24.271Z,100655.66
2023-01-13T10:42:49.794Z,100625.34
2023-01-13T10:48:21.806Z,100645.88
2023-01-13T10:54:06.755Z,100632.84
2023-01-13T10:59:28.554Z,100631.94
2023-01-13T11:04:55.003Z,100657.34
2023-01-13T11:10:28.310Z,100655.41
2023-01-13T11:16:18.728Z,100657.34
2023-01-13T11:22:06.217Z,100655.72
2023-01-13T11:34:44.403Z,100657.47
2023-01-13T11:40:41.272Z,100618.34
2023-01-13T11:46:03.652Z,100638.97
2023-01-13T11:51:35.167Z,100649.88
2023-01-13T11:57:22.948Z,100665.50
2023-01-13T12:02:53.343Z,100663.91
2023-01-13T12:08:19.417Z,100681.34
2023-01-13T12:14:14.069Z,100681.25
2023-01-13T12:19:36.586Z,100666.97
2023-01-13T12:25:13.406Z,100673.97
2023-01-13T12:30:39.494Z,100682.75
2023-01-13T12:36:07.508Z,100670.47
2023-01-13T12:42:07.902Z,100709.81
2023-01-13T12:47:44.524Z,100709.53
2023-01-13T12:53:36.783Z,100699.88
2023-01-13T12:59:17.426Z,100724.16
2023-01-13T13:04:59.323Z,100728.75
2023-01-13T13:10:34.673Z,100727.13
2023-01-13T13:16:26.044Z,100698.28
2023-01-13T13:22:14.518Z,100735.34
2023-01-13T13:28:55.850Z,100734.69
2023-01-13T13:34:51.833Z,100730.50
2023-01-13T13:40:43.049Z,100711.47
2023-01-13T13:52:58.365Z,100732.41
2023-01-13T13:58:21.155Z,100720.00
2023-01-13T14:10:29.311Z,100711.00
2023-01-13T14:16:08.824Z,100727.41
2023-01-13T14:21:33.506Z,100735.44
2023-01-13T14:27:16.431Z,100733.81
2023-01-13T14:32:44.119Z,100724.28
2023-01-13T14:38:26.055Z,100731.19
2023-01-13T14:43:50.006Z,100734.44
2023-01-13T14:49:37.996Z,100724.94
2023-01-13T14:55:10.698Z,100738.41
2023-01-13T15:00:33.474Z,100733.00
2023-01-13T15:05:58.619Z,100739.72
2023-01-13T15:11:27.382Z,100743.53
2023-01-13T15:16:53.716Z,100707.63
2023-01-13T15:22:15.880Z,100712.88
2023-01-13T15:27:38.979Z,100730.72
2023-01-13T15:33:01.080Z,100743.69
2023-01-13T15:38:25.200Z,100738.44
2023-01-13T15:44:07.796Z,100725.72
2023-01-13T15:49:47.961Z,100744.22
2023-01-13T15:55:10.557Z,100738.78
2023-01-13T16:00:33.806Z,100732.22
2023-01-13T16:05:55.446Z,100721.03
2023-01-13T16:11:17.532Z,100731.34
2023-01-13T16:16:39.602Z,100703.31
2023-01-13T16:22:02.166Z,100725.59
2023-01-13T16:27:26.195Z,100729.84
2023-01-13T16:32:48.319Z,100711.47
2023-01-13T16:38:17.808Z,100723.94
2023-01-13T16:43:40.462Z,100716.03
2023-01-13T16:49:06.155Z,100720.03
2023-01-13T16:54:28.227Z,100717.56
2023-01-13T16:59:50.532Z,100704.00
2023-01-13T17:05:14.036Z,100721.50
2023-01-13T17:10:36.105Z,100726.69
2023-01-13T17:16:01.170Z,100705.53
2023-01-13T17:21:26.869Z,100721.91
2023-01-13T17:26:51.982Z,100722.41
2023-01-13T17:37:56.762Z,100710.41
2023-01-13T17:43:19.218Z,100715.94
2023-01-13T17:48:41.622Z,100725.16
2023-01-13T17:54:04.460Z,100712.34
2023-01-13T17:59:26.749Z,100718.88
2023-01-13T18:04:49.125Z,100726.69
2023-01-13T18:10:15.255Z,100750.69
2023-01-13T18:15:38.083Z,100723.50
2023-01-13T18:21:18.224Z,100740.06
2023-01-13T18:26:58.878Z,100746.59
2023-01-13T18:32:21.841Z,100758.41
2023-01-13T18:37:44.902Z,100745.78
2023-01-13T18:43:06.884Z,100762.00
2023-01-13T18:48:28.873Z,100755.16
2023-01-13T18:53:50.919Z,100777.59
2023-01-13T18:59:13.100Z,100767.88
2023-01-13T19:04:36.460Z,100763.16
2023-01-13T19:10:01.649Z,100765.91
2023-01-13T19:15:29.185Z,100763.63
2023-01-13T19:20:56.151Z,100753.13
2023-01-13T19:26:20.571Z,100770.34
2023-01-13T19:31:42.823Z,100762.00
2023-01-13T19:37:07.155Z,100775.63
2023-01-13T19:42:48.305Z,100785.81
2023-01-13T19:48:10.933Z,100781.50
2023-01-13T19:53:33.733Z,100777.25
2023-01-13T19:58:55.973Z,100761.69
2023-01-13T20:04:26.958Z,100771.16
2023-01-13T20:09:49.104Z,100771.97
2023-01-13T20:15:11.656Z,100775.75
2023-01-13T20:20:33.620Z,100785.72
2023-01-13T20:25:55.753Z,100786.38
2023-01-13T20:31:17.709Z,100792.47
2023-01-13T20:36:43.796Z,100770.97
2023-01-13T20:42:24.826Z,100794.78
2023-01-13T20:47:47.456Z,100793.63
2023-01-13T20:53:09.663Z,100795.63
2023-01-13T20:58:31.787Z,100785.91
2023-01-13T21:03:57.463Z,100789.88
2023-01-13T21:09:20.154Z,100800.81
2023-01-13T21:15:00.381Z,100804.75
2023-01-13T21:20:22.615Z,100800.59
2023-01-13T21:25:47.331Z,100815.38
2023-01-13T21:31:10.807Z,100817.88
2023-01-13T21:36:33.027Z,100812.94
2023-01-13T21:42:13.975Z,100827.22
2023-01-13T21:47:51.265Z,100811.13
2023-01-13T21:53:13.517Z,100827.84
2023-01-13T21:58:35.237Z,100815.84
2023-01-13T22:04:15.247Z,100827.22
2023-01-13T22:09:37.295Z,100829.31
2023-01-13T22:14:59.611Z,100804.75
2023-01-13T22:20:22.787Z,100824.72
2023-01-13T22:25:44.979Z,100819.59
2023-01-13T22:31:14.695Z,100831.88
2023-01-13T22:36:36.778Z,100818.09
2023-01-13T22:41:58.776Z,100830.25
2023-01-13T22:47:20.605Z,100821.88
2023-01-13T22:52:42.293Z,100789.88
2023-01-13T22:58:04.170Z,100804.00
2023-01-13T23:03:26.316Z,100800.66
2023-01-13T23:08:49.087Z,100812.13
2023-01-13T23:14:17.484Z,100805.53
2023-01-13T23:19:42.627Z,100800.47
2023-01-13T23:25:08.767Z,100822.94
2023-01-13T23:30:31.036Z,100825.66
2023-01-13T23:35:58.606Z,100827.69
2023-01-13T23:41:24.422Z,100811.56
2023-01-13T23:46:46.417Z,100817.03
2023-01-13T23:52:12.037Z,100825.84
2023-01-13T23:57:34.038Z,100811.75
